Time;durP1;ratioP1;P1;durP2;ratioP2;P2;SDS_P1;SDS_P2;PMS_P1;PMS_P2;Temp;Humidity;BMP_temperature;BMP_pressure;BME280_temperature;BME280_humidity;BME280_pressure;Samples;Min_cycle;Max_cycle;Signal;HPM_P1;HPM_P2
2022/08/18 00:01:09;;;;;;;5.82;4.20;;;17.60;21.80;;;;;;5107050;28;34548;-77
2022/08/18 00:03:35;;;;;;;5.15;4.10;;;17.60;21.70;;;;;;5107308;28;34142;-76
2022/08/18 00:06:01;;;;;;;5.20;4.20;;;17.60;21.90;;;;;;5105796;28;34200;-76
2022/08/18 00:08:28;;;;;;;4.72;4.25;;;17.60;22.40;;;;;;5107393;28;34043;-76
2022/08/18 00:10:55;;;;;;;4.72;4.07;;;17.60;22.30;;;;;;5096731;28;35537;-76
2022/08/18 00:13:21;;;;;;;4.60;4.20;;;17.60;22.30;;;;;;5085528;28;34162;-77
2022/08/18 00:15:47;;;;;;;4.38;3.97;;;17.60;22.30;;;;;;5086605;28;35859;-77
2022/08/18 00:18:13;;;;;;;5.32;3.97;;;17.60;22.50;;;;;;5068989;28;34223;-77
2022/08/18 00:20:40;;;;;;;5.97;4.25;;;17.50;22.30;;;;;;5091980;27;35705;-78
2022/08/18 00:23:06;;;;;;;4.85;3.97;;;17.50;22.80;;;;;;5105572;28;34261;-77
2022/08/18 00:25:32;;;;;;;6.18;4.10;;;17.50;22.40;;;;;;5107004;28;34214;-77
2022/08/18 00:27:58;;;;;;;4.93;4.28;;;17.50;22.30;;;;;;5087267;28;34258;-77
2022/08/18 00:30:24;;;;;;;4.07;3.75;;;17.40;22.20;;;;;;5085230;28;36489;-77
2022/08/18 00:32:56;;;;;;;4.20;3.80;;;17.50;22.10;;;;;;5086741;28;34178;-77
2022/08/18 00:35:27;;;;;;;4.05;3.65;;;17.40;22.60;;;;;;5068577;28;34139;-77
2022/08/18 00:37:55;;;;;;;4.72;4.18;;;17.40;22.30;;;;;;5086357;28;34063;-77
2022/08/18 00:40:27;;;;;;;4.65;4.13;;;17.40;22.40;;;;;;5101791;28;35674;-77
2022/08/18 00:42:56;;;;;;;4.18;3.78;;;17.30;22.90;;;;;;5105986;28;34317;-78
2022/08/18 00:45:29;;;;;;;4.75;4.25;;;17.30;22.90;;;;;;5072887;28;34234;-78
2022/08/18 00:47:55;;;;;;;4.75;4.25;;;17.20;23.20;;;;;;5106216;28;34358;-78
2022/08/18 00:50:27;;;;;;;4.82;4.15;;;17.20;22.60;;;;;;5106432;28;35300;-77
2022/08/18 00:53:01;;;;;;;5.65;4.07;;;17.20;23.40;;;;;;5088191;28;34366;-77
2022/08/18 00:55:29;;;;;;;5.03;4.50;;;17.20;23.60;;;;;;5090680;28;34204;-77
2022/08/18 00:58:01;;;;;;;5.60;5.07;;;17.10;23.00;;;;;;5080152;28;34063;-77
2022/08/18 01:00:28;;;;;;;5.10;3.90;;;17.10;23.10;;;;;;5098251;28;35897;-77
2022/08/18 01:02:58;;;;;;;5.28;3.92;;;17.10;22.80;;;;;;5064866;28;34107;-77
2022/08/18 01:05:33;;;;;;;4.35;3.95;;;17.10;22.80;;;;;;5098195;28;34319;-77
2022/08/18 01:08:00;;;;;;;5.22;4.20;;;17.00;23.50;;;;;;5075493;28;34318;-77
2022/08/18 01:10:26;;;;;;;4.63;4.03;;;16.90;22.70;;;;;;5084629;28;36814;-77
2022/08/18 01:12:57;;;;;;;4.25;3.85;;;16.90;23.00;;;;;;5085726;28;34253;-77
2022/08/18 01:15:25;;;;;;;5.22;4.22;;;16.80;22.90;;;;;;5084349;28;34236;-77
2022/08/18 01:23:22;;;;;;;4.10;3.70;;;16.80;23.20;;;;;;5050505;28;34206;-77
2022/08/18 01:28:37;;;;;;;4.18;3.55;;;16.70;23.30;;;;;;5065254;28;34282;-78
2022/08/18 01:31:03;;;;;;;4.50;3.95;;;16.70;23.10;;;;;;5066885;28;36018;-78
2022/08/18 01:33:32;;;;;;;4.38;3.72;;;16.60;23.00;;;;;;5086067;28;34464;-78
2022/08/18 01:36:11;;;;;;;4.40;4.00;;;16.60;22.90;;;;;;5085723;28;35609;-77
2022/08/18 01:38:37;;;;;;;3.85;3.45;;;16.50;23.10;;;;;;5065183;28;34220;-78
2022/08/18 01:41:04;;;;;;;4.90;4.00;;;16.60;22.70;;;;;;5067867;28;36360;-78
2022/08/18 01:43:30;;;;;;;5.05;4.15;;;16.50;22.80;;;;;;5068719;28;34238;-77
2022/08/18 01:45:59;;;;;;;4.05;3.67;;;16.50;22.80;;;;;;5087051;28;34150;-77
2022/08/18 01:48:27;;;;;;;4.40;4.00;;;16.50;23.10;;;;;;5069149;28;34424;-78
2022/08/18 01:50:55;;;;;;;4.65;4.13;;;16.50;23.40;;;;;;5085177;28;36032;-78
2022/08/18 01:53:22;;;;;;;4.28;3.88;;;16.40;23.30;;;;;;5084365;28;34136;-78
2022/08/18 01:55:48;;;;;;;4.53;4.10;;;16.40;23.50;;;;;;5084923;28;34504;-77
2022/08/18 01:58:13;;;;;;;4.65;3.92;;;16.40;22.90;;;;;;5084588;28;34329;-78
2022/08/18 02:00:41;;;;;;;4.15;3.72;;;16.40;24.20;;;;;;5065366;28;36059;-78
2022/08/18 02:03:11;;;;;;;7.32;4.13;;;16.30;23.10;;;;;;5085279;28;34150;-78
2022/08/18 02:05:43;;;;;;;5.03;4.22;;;16.30;23.30;;;;;;5099918;27;34288;-78
2022/08/18 02:08:11;;;;;;;4.80;4.30;;;16.30;23.10;;;;;;5085480;28;34138;-77
2022/08/18 02:10:37;;;;;;;4.80;3.80;;;16.30;23.30;;;;;;5084615;28;36577;-78
2022/08/18 02:13:04;;;;;;;5.30;4.20;;;16.20;23.20;;;;;;5093367;28;34119;-78
2022/08/18 02:15:31;;;;;;;6.72;4.25;;;16.20;22.90;;;;;;5084167;28;34159;-78
2022/08/18 02:17:57;;;;;;;5.30;3.80;;;16.10;23.00;;;;;;5084534;28;34530;-78
2022/08/18 02:20:23;;;;;;;4.43;4.03;;;16.10;23.20;;;;;;5065729;28;35896;-77
2022/08/18 02:22:50;;;;;;;4.95;4.30;;;16.10;23.20;;;;;;5103742;28;34073;-78
2022/08/18 02:25:17;;;;;;;4.93;4.10;;;16.10;22.90;;;;;;5105591;28;34570;-78
2022/08/18 02:27:44;;;;;;;5.93;4.45;;;16.00;23.10;;;;;;5068680;28;34405;-78
2022/08/18 02:30:14;;;;;;;5.25;4.10;;;15.90;22.90;;;;;;5071557;28;36565;-77
2022/08/18 02:32:41;;;;;;;3.78;3.35;;;15.90;23.10;;;;;;5099718;28;34018;-77
2022/08/18 02:35:08;;;;;;;5.82;3.97;;;15.90;23.00;;;;;;5104878;28;34232;-78
2022/08/18 02:37:34;;;;;;;4.55;4.15;;;15.90;23.10;;;;;;5088053;28;34025;-78
2022/08/18 02:40:00;;;;;;;4.60;4.10;;;15.90;23.10;;;;;;5080871;28;35587;-78
2022/08/18 02:42:27;;;;;;;5.22;4.53;;;15.80;23.10;;;;;;5085105;28;34179;-78
2022/08/18 02:44:53;;;;;;;6.47;4.63;;;15.80;23.10;;;;;;5096161;28;34234;-78
2022/08/18 02:47:20;;;;;;;4.63;4.15;;;15.70;23.20;;;;;;5067199;28;34090;-78
2022/08/18 02:49:47;;;;;;;4.85;4.30;;;15.70;23.10;;;;;;5085884;28;34154;-78
2022/08/18 02:52:13;;;;;;;4.43;4.03;;;15.70;23.50;;;;;;5067085;28;34680;-78
2022/08/18 02:54:39;;;;;;;4.40;3.90;;;15.60;23.40;;;;;;5091432;28;33886;-77
2022/08/18 02:57:09;;;;;;;4.55;3.80;;;15.60;23.40;;;;;;5105263;28;34095;-78
2022/08/18 02:59:37;;;;;;;6.55;3.95;;;15.60;23.50;;;;;;5097825;28;34436;-78
2022/08/18 03:02:06;;;;;;;7.22;4.78;;;15.60;23.50;;;;;;5106840;28;34244;-78
2022/08/18 03:04:32;;;;;;;8.13;4.60;;;15.60;23.70;;;;;;5071796;28;34111;-77
2022/08/18 03:07:06;;;;;;;5.38;4.05;;;15.50;23.80;;;;;;5070001;28;34377;-77
2022/08/18 03:09:33;;;;;;;6.40;5.00;;;15.50;23.80;;;;;;5103182;28;35407;-79
2022/08/18 03:11:59;;;;;;;5.97;3.75;;;15.50;23.70;;;;;;5068208;28;34110;-78
2022/08/18 03:14:25;;;;;;;4.38;3.90;;;15.50;24.00;;;;;;5085410;28;34170;-78
2022/08/18 03:16:51;;;;;;;4.32;3.90;;;15.50;23.90;;;;;;5102374;28;34267;-78
2022/08/18 03:19:17;;;;;;;6.50;4.03;;;15.50;23.80;;;;;;5063903;28;35905;-78
2022/08/18 03:21:45;;;;;;;5.15;4.65;;;15.40;23.60;;;;;;5083016;28;34044;-78
2022/08/18 03:24:12;;;;;;;5.93;4.18;;;15.50;23.80;;;;;;5063999;28;34189;-78
2022/08/18 03:26:44;;;;;;;5.95;4.70;;;15.40;24.10;;;;;;5064190;28;34591;-78
2022/08/18 03:29:11;;;;;;;5.32;4.47;;;15.40;24.70;;;;;;5063895;28;35770;-78
2022/08/18 03:31:37;;;;;;;8.50;5.70;;;15.40;24.30;;;;;;5096572;27;33692;-78
2022/08/18 03:34:07;;;;;;;5.88;4.95;;;15.40;24.00;;;;;;5092754;28;34118;-78
2022/08/18 03:36:35;;;;;;;6.78;5.20;;;15.50;25.20;;;;;;5087485;28;34474;-78
2022/08/18 03:39:05;;;;;;;7.57;4.78;;;15.50;24.60;;;;;;5087376;28;35987;-78
2022/08/18 03:41:31;;;;;;;7.20;4.57;;;15.50;24.80;;;;;;5101102;28;34364;-78
2022/08/18 03:43:57;;;;;;;5.82;4.72;;;15.60;24.80;;;;;;5067716;28;34143;-78
2022/08/18 03:46:23;;;;;;;5.40;4.78;;;15.60;25.10;;;;;;5085868;28;34382;-78
2022/08/18 03:48:52;;;;;;;11.00;5.15;;;15.70;25.10;;;;;;5101588;28;34639;-78
2022/08/18 03:51:24;;;;;;;6.70;4.57;;;15.70;25.00;;;;;;5087345;28;34132;-78
2022/08/18 03:53:50;;;;;;;5.25;4.75;;;15.80;25.10;;;;;;5094636;28;34540;-78
2022/08/18 03:56:20;;;;;;;5.68;5.00;;;15.80;24.70;;;;;;5078058;28;34523;-78
2022/08/18 03:58:49;;;;;;;6.57;5.10;;;15.80;24.90;;;;;;5070034;28;36640;-78
2022/08/18 04:01:17;;;;;;;5.80;5.00;;;15.80;25.00;;;;;;5078611;28;34253;-78
2022/08/18 04:03:45;;;;;;;5.95;4.72;;;15.80;25.20;;;;;;5106922;28;34141;-79
2022/08/18 04:06:22;;;;;;;6.63;5.10;;;15.80;25.00;;;;;;5097835;28;34646;-79
2022/08/18 04:08:53;;;;;;;6.78;5.57;;;15.90;25.90;;;;;;5070396;28;36540;-79
2022/08/18 04:11:19;;;;;;;11.95;5.57;;;15.90;25.20;;;;;;5052684;28;34140;-78
2022/08/18 04:13:46;;;;;;;6.82;5.40;;;15.90;25.10;;;;;;5087112;28;34149;-77
2022/08/18 04:16:12;;;;;;;5.97;4.82;;;15.90;25.10;;;;;;5087808;28;34205;-77
2022/08/18 04:18:38;;;;;;;4.80;4.22;;;15.90;24.90;;;;;;5086637;28;35570;-78
2022/08/18 04:21:08;;;;;;;6.70;5.05;;;15.90;24.70;;;;;;5086714;28;34048;-77
2022/08/18 04:23:37;;;;;;;5.57;4.82;;;16.00;25.20;;;;;;5069331;28;34267;-78
2022/08/18 04:26:05;;;;;;;5.97;4.97;;;16.00;24.90;;;;;;5066769;28;34382;-78
2022/08/18 04:28:32;;;;;;;5.95;5.00;;;16.00;25.10;;;;;;5065811;28;35594;-77
2022/08/18 04:31:04;;;;;;;5.25;4.72;;;16.00;25.20;;;;;;5082664;28;34033;-78
2022/08/18 04:33:30;;;;;;;5.60;4.70;;;16.00;25.20;;;;;;5095514;27;34280;-78
2022/08/18 04:35:56;;;;;;;6.75;5.70;;;16.10;25.10;;;;;;5087547;28;34261;-77
2022/08/18 04:38:23;;;;;;;5.65;5.05;;;16.00;24.90;;;;;;5068874;28;35995;-77
2022/08/18 04:40:49;;;;;;;7.10;4.80;;;16.00;25.10;;;;;;5068708;28;34169;-78
2022/08/18 04:43:15;;;;;;;5.28;4.55;;;16.00;24.90;;;;;;5086093;28;34541;-78
2022/08/18 04:45:43;;;;;;;5.80;5.13;;;16.10;25.40;;;;;;5087417;28;34315;-77
2022/08/18 04:48:09;;;;;;;6.85;5.13;;;16.10;25.50;;;;;;5103747;28;35765;-77
2022/08/18 04:50:36;;;;;;;5.80;4.93;;;16.10;25.20;;;;;;5089255;28;34222;-77
2022/08/18 04:55:50;;;;;;;6.20;4.93;;;16.20;25.40;;;;;;5093457;28;34073;-77
2022/08/18 04:58:17;;;;;;;6.15;5.55;;;16.20;25.70;;;;;;5068934;28;36384;-78
2022/08/18 05:00:44;;;;;;;5.15;4.50;;;16.20;25.30;;;;;;5086535;28;34018;-77
2022/08/18 05:03:12;;;;;;;6.88;5.47;;;16.20;25.40;;;;;;5085846;28;34202;-77
2022/08/18 05:05:38;;;;;;;6.03;5.28;;;16.20;24.80;;;;;;5085295;28;34208;-77
2022/08/18 05:08:04;;;;;;;6.20;4.95;;;16.30;24.90;;;;;;5085191;28;34278;-78
2022/08/18 05:10:30;;;;;;;5.72;4.93;;;16.30;25.10;;;;;;5050524;28;34394;-78
2022/08/18 05:12:56;;;;;;;10.02;5.10;;;16.30;25.60;;;;;;5048980;28;34406;-77
2022/08/18 05:15:22;;;;;;;6.78;5.68;;;16.30;25.40;;;;;;5048473;28;34159;-78
2022/08/18 05:17:48;;;;;;;7.45;5.75;;;16.40;25.00;;;;;;5074195;28;35584;-77
2022/08/18 05:20:15;;;;;;;6.72;5.40;;;16.40;25.30;;;;;;5064769;28;33875;-77
2022/08/18 05:22:42;;;;;;;8.00;6.20;;;16.50;25.20;;;;;;5065351;28;34128;-77
2022/08/18 05:25:10;;;;;;;6.38;5.65;;;16.50;25.50;;;;;;5064633;28;34017;-77
2022/08/18 05:27:39;;;;;;;9.57;5.70;;;16.60;25.40;;;;;;5064925;28;34616;-77
2022/08/18 05:30:07;;;;;;;5.93;5.00;;;16.60;25.20;;;;;;5031780;28;34310;-77
2022/08/18 05:32:37;;;;;;;7.20;5.90;;;16.70;25.40;;;;;;5064678;28;34318;-77
2022/08/18 05:35:11;;;;;;;6.20;5.35;;;16.70;25.40;;;;;;5065643;28;34437;-77
2022/08/18 05:38:02;;;;;;;6.55;5.32;;;16.70;25.20;;;;;;5064165;28;36675;-77
2022/08/18 05:40:30;;;;;;;6.63;5.22;;;16.80;26.20;;;;;;5069324;28;34160;-77
2022/08/18 05:42:58;;;;;;;11.38;6.03;;;16.80;25.70;;;;;;5084428;28;34205;-77
2022/08/18 05:45:25;;;;;;;6.75;5.65;;;16.90;25.60;;;;;;5084279;28;34520;-77
2022/08/18 05:47:58;;;;;;;5.78;5.20;;;16.90;25.50;;;;;;5084887;28;36450;-77
2022/08/18 05:50:26;;;;;;;6.32;5.55;;;17.00;25.60;;;;;;5071875;28;34256;-77
2022/08/18 05:53:00;;;;;;;6.53;5.80;;;17.10;25.50;;;;;;5063334;28;34073;-77
2022/08/18 05:58:22;;;;;;;9.00;6.10;;;17.10;25.80;;;;;;5081401;28;34163;-77
2022/08/18 06:00:54;;;;;;;7.05;5.95;;;17.20;25.40;;;;;;5047769;28;34041;-77
2022/08/18 06:03:25;;;;;;;7.72;5.78;;;17.30;25.60;;;;;;5069874;28;34163;-77
2022/08/18 06:06:00;;;;;;;7.50;6.32;;;17.30;25.90;;;;;;5067023;28;34146;-78
2022/08/18 06:08:32;;;;;;;9.18;5.63;;;17.30;25.70;;;;;;5084473;28;35771;-76
2022/08/18 06:10:58;;;;;;;8.63;5.80;;;17.40;25.80;;;;;;5066992;28;34254;-78
2022/08/18 06:13:25;;;;;;;7.90;5.95;;;17.40;25.50;;;;;;5083392;28;34063;-77
2022/08/18 06:19:53;;;;;;;7.93;5.90;;;17.50;28.00;;;;;;5062135;28;34939;-77
2022/08/18 06:22:43;;;;;;;9.57;5.93;;;17.60;27.40;;;;;;5030436;28;34206;-77
2022/08/18 06:25:32;;;;;;;6.93;5.93;;;17.70;26.70;;;;;;5041394;28;34205;-77
2022/08/18 06:28:14;;;;;;;9.75;5.60;;;17.70;26.90;;;;;;5026289;28;34138;-77
2022/08/18 06:31:12;;;;;;;6.50;5.65;;;17.80;27.10;;;;;;5032661;28;34120;-77
2022/08/18 06:33:56;;;;;;;9.55;6.28;;;17.80;26.80;;;;;;5051206;28;34228;-77
2022/08/18 06:36:53;;;;;;;6.53;5.82;;;17.90;26.50;;;;;;5045780;28;34378;-77
2022/08/18 06:39:40;;;;;;;6.75;5.75;;;18.00;26.70;;;;;;5044668;28;34263;-77
2022/08/18 06:42:06;;;;;;;7.85;6.47;;;18.10;26.30;;;;;;5062420;28;34391;-77
2022/08/18 06:44:38;;;;;;;8.18;6.60;;;18.20;24.50;;;;;;5062099;28;34180;-77
2022/08/18 06:47:14;;;;;;;7.07;5.88;;;18.30;24.50;;;;;;5029130;28;34246;-77
2022/08/18 06:49:50;;;;;;;7.93;6.40;;;18.30;25.00;;;;;;5047853;28;34413;-77
2022/08/18 06:52:21;;;;;;;7.55;6.07;;;18.40;24.70;;;;;;5062815;28;35538;-77
2022/08/18 06:54:48;;;;;;;8.57;7.03;;;18.50;24.80;;;;;;5078224;28;34234;-76
2022/08/18 07:00:24;;;;;;;8.38;6.57;;;18.70;26.60;;;;;;5084087;28;34191;-76
2022/08/18 07:02:58;;;;;;;12.32;6.70;;;18.70;25.00;;;;;;5066069;28;36581;-77
2022/08/18 07:05:28;;;;;;;7.53;6.60;;;18.80;24.90;;;;;;5048364;28;34329;-77
2022/08/18 07:08:16;;;;;;;11.75;6.63;;;18.80;24.70;;;;;;5061425;28;34166;-77
2022/08/18 07:10:47;;;;;;;8.05;6.60;;;18.90;25.70;;;;;;5043278;28;34557;-76
2022/08/18 07:13:20;;;;;;;7.15;6.03;;;19.00;24.70;;;;;;5045854;28;35705;-77
2022/08/18 07:15:47;;;;;;;8.02;6.32;;;19.10;24.70;;;;;;5062540;28;34102;-77
2022/08/18 07:18:20;;;;;;;8.32;6.38;;;19.10;24.60;;;;;;5061803;28;34204;-76
2022/08/18 07:20:53;;;;;;;7.85;6.28;;;19.20;24.40;;;;;;5062616;28;34122;-76
2022/08/18 07:23:27;;;;;;;10.98;7.05;;;19.30;24.30;;;;;;5062714;28;35219;-77
2022/08/18 07:26:12;;;;;;;7.05;6.10;;;19.40;24.60;;;;;;5062030;28;34285;-77
2022/08/18 07:28:50;;;;;;;8.25;6.57;;;19.40;25.10;;;;;;5046385;28;34327;-77
2022/08/18 07:31:36;;;;;;;7.55;6.30;;;19.50;25.00;;;;;;5062056;28;34093;-77
2022/08/18 07:34:14;;;;;;;7.55;6.05;;;19.50;25.00;;;;;;5063090;28;34429;-76
2022/08/18 07:37:01;;;;;;;7.07;6.05;;;19.50;24.30;;;;;;5045028;28;34290;-77
2022/08/18 07:39:35;;;;;;;7.22;6.20;;;19.50;25.00;;;;;;5063339;28;34173;-76
2022/08/18 07:42:16;;;;;;;7.10;6.03;;;19.50;24.30;;;;;;5063278;28;34207;-76
2022/08/18 07:45:07;;;;;;;8.98;6.85;;;19.60;24.10;;;;;;5062924;28;34091;-76
2022/08/18 07:47:49;;;;;;;9.82;7.03;;;19.60;24.20;;;;;;5063147;28;34687;-78
2022/08/18 07:50:16;;;;;;;7.15;6.43;;;19.70;24.60;;;;;;5077098;28;34023;-78
2022/08/18 07:52:50;;;;;;;8.48;6.80;;;19.70;23.90;;;;;;5062151;28;34162;-78
2022/08/18 07:55:31;;;;;;;9.93;6.28;;;19.80;24.20;;;;;;5042652;28;35264;-78
2022/08/18 07:58:26;;;;;;;8.05;6.47;;;19.80;23.70;;;;;;5055093;28;34151;-78
2022/08/18 08:01:03;;;;;;;7.40;6.38;;;19.90;24.90;;;;;;5074335;28;34394;-78
2022/08/18 08:03:45;;;;;;;8.07;6.97;;;20.00;24.50;;;;;;5078289;28;34055;-78
2022/08/18 08:06:22;;;;;;;8.55;6.78;;;20.00;23.60;;;;;;5084876;28;34431;-78
2022/08/18 08:09:22;;;;;;;7.97;6.70;;;20.10;24.70;;;;;;5105047;27;34117;-77
2022/08/18 08:12:12;;;;;;;9.52;6.45;;;20.10;24.00;;;;;;5054023;28;34617;-77
2022/08/18 08:14:43;;;;;;;8.50;6.80;;;20.30;24.50;;;;;;5092548;28;34007;-77
2022/08/18 08:17:27;;;;;;;11.63;6.75;;;20.40;22.90;;;;;;5085062;27;35898;-77
2022/08/18 08:20:18;;;;;;;10.15;7.82;;;20.50;22.70;;;;;;5106563;28;34535;-77
2022/08/18 08:23:16;;;;;;;9.30;7.20;;;20.70;23.40;;;;;;5068339;28;34008;-77
2022/08/18 08:26:13;;;;;;;10.07;6.50;;;20.70;23.00;;;;;;5085673;28;34371;-77
2022/08/18 08:28:54;;;;;;;7.47;6.55;;;20.80;22.80;;;;;;5074290;28;36387;-77
2022/08/18 08:31:44;;;;;;;8.35;7.07;;;20.90;22.90;;;;;;5089695;28;34340;-78
2022/08/18 08:34:30;;;;;;;14.30;6.25;;;21.10;22.80;;;;;;5105552;27;34100;-77
2022/08/18 08:37:02;;;;;;;7.15;6.03;;;21.20;22.10;;;;;;5092924;28;34583;-77
2022/08/18 08:39:47;;;;;;;8.23;6.75;;;21.30;22.20;;;;;;5106761;27;34317;-77
2022/08/18 08:42:22;;;;;;;6.82;6.13;;;21.40;22.40;;;;;;5073074;28;34503;-77
2022/08/18 08:44:59;;;;;;;6.93;6.10;;;21.50;21.80;;;;;;5090690;28;34214;-78
2022/08/18 08:47:49;;;;;;;8.35;6.63;;;21.60;21.80;;;;;;5086800;27;34496;-78
2022/08/18 08:50:20;;;;;;;7.57;6.57;;;21.70;21.80;;;;;;5087855;28;34373;-76
2022/08/18 08:52:57;;;;;;;7.88;7.07;;;21.80;21.40;;;;;;5088196;28;34022;-75
2022/08/18 08:55:36;;;;;;;8.57;7.22;;;21.80;21.20;;;;;;5088023;28;34066;-75
2022/08/18 08:58:21;;;;;;;8.60;6.85;;;21.90;20.70;;;;;;5086012;28;34352;-75
2022/08/18 09:00:49;;;;;;;7.07;6.20;;;21.90;21.20;;;;;;5092346;27;35709;-75
2022/08/18 09:03:42;;;;;;;9.93;6.82;;;22.00;21.10;;;;;;5066002;28;35007;-75
2022/08/18 09:06:24;;;;;;;9.27;7.00;;;22.20;20.80;;;;;;5084135;27;34121;-75
2022/08/18 09:09:09;;;;;;;10.10;6.60;;;22.30;20.10;;;;;;5092009;28;34271;-75
2022/08/18 09:12:00;;;;;;;8.88;7.05;;;22.30;19.80;;;;;;5089621;28;35641;-76
2022/08/18 09:14:51;;;;;;;7.93;7.10;;;22.30;20.20;;;;;;5099406;28;34166;-76
2022/08/18 09:17:49;;;;;;;8.52;7.22;;;22.40;19.50;;;;;;5100052;27;34133;-76
2022/08/18 09:20:34;;;;;;;8.25;6.75;;;22.50;19.50;;;;;;5092156;27;34417;-76
2022/08/18 09:23:09;;;;;;;11.65;7.10;;;22.50;20.10;;;;;;5089940;28;34511;-76
2022/08/18 09:25:50;;;;;;;8.15;6.80;;;22.60;20.00;;;;;;5087601;28;34401;-76
2022/08/18 09:28:48;;;;;;;10.75;7.55;;;22.70;20.00;;;;;;5107578;27;34370;-76
2022/08/18 09:31:18;;;;;;;7.30;6.47;;;22.80;19.90;;;;;;5107558;27;34349;-76
2022/08/18 09:33:57;;;;;;;8.13;7.13;;;23.00;19.90;;;;;;5093265;28;36060;-76
2022/08/18 09:36:46;;;;;;;15.65;7.30;;;23.10;20.00;;;;;;5087974;28;34195;-76
2022/08/18 09:45:52;;;;;;;9.05;6.93;;;23.60;18.90;;;;;;5074200;28;34576;-76
2022/08/18 09:48:26;;;;;;;8.32;7.35;;;23.70;18.80;;;;;;5088325;28;35419;-76
2022/08/18 09:51:14;;;;;;;9.15;7.18;;;23.90;18.40;;;;;;5106066;28;34228;-77
2022/08/18 09:54:05;;;;;;;8.70;6.45;;;24.00;18.20;;;;;;5087282;28;34316;-76
2022/08/18 09:57:06;;;;;;;9.15;6.82;;;24.30;18.20;;;;;;5086942;28;36496;-76
2022/08/18 09:59:54;;;;;;;9.60;6.15;;;24.40;17.50;;;;;;5088060;28;34315;-76
2022/08/18 10:02:58;;;;;;;9.23;7.50;;;24.60;16.70;;;;;;5073582;28;34123;-76
2022/08/18 10:05:28;;;;;;;9.45;7.03;;;24.80;16.50;;;;;;5090907;27;34372;-76
2022/08/18 10:08:27;;;;;;;8.95;7.80;;;25.00;16.90;;;;;;5086676;28;35898;-77
2022/08/18 10:11:15;;;;;;;9.05;7.53;;;25.10;14.80;;;;;;5054813;28;34356;-76
2022/08/18 10:14:04;;;;;;;8.98;6.90;;;25.20;16.10;;;;;;5099536;28;34380;-76
2022/08/18 10:27:54;;;;;;;9.13;7.68;;;25.50;14.80;;;;;;5097247;28;34278;-76
2022/08/18 10:30:44;;;;;;;7.88;7.07;;;26.50;12.90;;;;;;5072917;28;34117;-75
2022/08/18 10:33:12;;;;;;;11.80;8.77;;;26.60;13.70;;;;;;5048701;28;34376;-76
2022/08/18 10:35:57;;;;;;;10.95;7.78;;;26.80;13.20;;;;;;5080098;28;34398;-76
2022/08/18 10:38:37;;;;;;;8.38;6.68;;;27.10;11.10;;;;;;5062658;28;34126;-76
2022/08/18 10:41:12;;;;;;;8.20;6.90;;;27.20;11.20;;;;;;5060561;28;35415;-75
2022/08/18 10:43:44;;;;;;;12.38;6.90;;;27.50;12.10;;;;;;5043510;28;34124;-76
2022/08/18 10:46:27;;;;;;;10.60;7.15;;;27.80;11.40;;;;;;5079741;28;34925;-77
2022/08/18 10:49:00;;;;;;;12.27;8.00;;;28.30;9.70;;;;;;5079303;28;34177;-76
2022/08/18 10:51:41;;;;;;;7.18;6.30;;;28.50;8.60;;;;;;5063958;28;34237;-76
2022/08/18 10:54:21;;;;;;;8.50;5.35;;;28.80;9.20;;;;;;5063814;28;34071;-76
2022/08/18 10:56:54;;;;;;;8.20;5.78;;;29.00;7.70;;;;;;5088830;27;34365;-79
2022/08/18 10:59:42;;;;;;;6.85;5.50;;;29.20;8.70;;;;;;5096224;27;34132;-77
2022/08/18 11:02:30;;;;;;;10.63;5.82;;;29.50;5.90;;;;;;5074019;28;34167;-79
2022/08/18 11:04:57;;;;;;;7.40;5.68;;;29.80;7.00;;;;;;5098342;27;34172;-77
2022/08/18 11:10:19;;;;;;;7.90;6.50;;;30.30;7.10;;;;;;5091280;28;34244;-78
2022/08/18 11:13:09;;;;;;;6.65;5.43;;;30.40;5.70;;;;;;5084750;28;34051;-78
2022/08/18 11:16:01;;;;;;;6.95;6.25;;;30.40;6.30;;;;;;5096058;27;35177;-77
2022/08/18 11:18:40;;;;;;;11.02;5.35;;;30.60;5.40;;;;;;5068752;27;35949;-78
2022/08/18 11:21:39;;;;;;;6.38;5.43;;;30.60;6.30;;;;;;5082762;28;34257;-77
2022/08/18 11:24:19;;;;;;;6.72;5.53;;;30.60;2.80;;;;;;5099417;28;34191;-76
2022/08/18 11:26:51;;;;;;;5.55;4.78;;;30.60;4.00;;;;;;5066774;28;34422;-76
2022/08/18 11:29:21;;;;;;;6.15;5.20;;;30.40;5.30;;;;;;5051106;28;35825;-76
2022/08/18 11:31:52;;;;;;;6.40;5.43;;;30.20;6.40;;;;;;5058645;28;34550;-76
2022/08/18 11:34:27;;;;;;;5.50;5.00;;;30.00;6.30;;;;;;5067959;28;34326;-77
2022/08/18 11:36:59;;;;;;;8.30;4.95;;;29.80;5.20;;;;;;5053674;28;34478;-77
2022/08/18 11:39:27;;;;;;;6.40;5.07;;;29.60;4.30;;;;;;5062306;28;35598;-77
2022/08/18 11:41:54;;;;;;;5.07;4.60;;;29.40;6.60;;;;;;5075178;28;34217;-76
2022/08/18 11:44:23;;;;;;;5.28;4.78;;;29.20;6.80;;;;;;5068311;28;34278;-77
2022/08/18 11:46:56;;;;;;;11.77;4.50;;;29.00;6.60;;;;;;5034860;28;34088;-76
2022/08/18 11:49:32;;;;;;;8.07;4.93;;;29.00;5.90;;;;;;5065547;28;37046;-76
2022/08/18 11:52:01;;;;;;;13.95;4.55;;;29.10;5.50;;;;;;5051795;28;34131;-77
2022/08/18 11:54:39;;;;;;;5.55;5.05;;;29.40;6.00;;;;;;5068639;28;34372;-77
2022/08/18 11:57:30;;;;;;;5.90;5.30;;;29.70;1.90;;;;;;5050989;28;34196;-77
2022/08/18 11:59:56;;;;;;;4.70;4.20;;;29.90;1.00;;;;;;5052070;28;36341;-77
2022/08/18 12:02:24;;;;;;;5.47;4.93;;;30.30;5.10;;;;;;5054345;28;34274;-77
2022/08/18 12:04:54;;;;;;;5.30;4.80;;;30.60;3.50;;;;;;5088753;28;34772;-76
2022/08/18 12:07:35;;;;;;;5.10;4.60;;;30.90;3.70;;;;;;5076549;28;34163;-76
2022/08/18 12:10:28;;;;;;;8.90;4.80;;;30.90;1.00;;;;;;5071040;28;35877;-76
2022/08/18 12:12:56;;;;;;;5.43;4.93;;;30.90;1.00;;;;;;5068806;28;34193;-77
2022/08/18 12:15:27;;;;;;;6.55;4.53;;;30.70;3.30;;;;;;5066963;28;34142;-77
2022/08/18 12:17:53;;;;;;;6.13;4.78;;;30.70;2.40;;;;;;5048897;28;34342;-77
2022/08/18 12:20:20;;;;;;;5.60;4.85;;;30.60;3.30;;;;;;5075624;28;36024;-76
2022/08/18 12:22:48;;;;;;;4.78;4.28;;;30.50;2.70;;;;;;5074537;28;34335;-78
2022/08/18 12:25:17;;;;;;;6.18;4.90;;;30.40;3.30;;;;;;5068127;28;34194;-77
2022/08/18 12:27:43;;;;;;;4.63;4.22;;;30.50;2.60;;;;;;5047065;28;34144;-77
2022/08/18 12:30:11;;;;;;;5.05;4.40;;;30.60;3.20;;;;;;5033289;28;35820;-77
2022/08/18 12:32:55;;;;;;;4.50;4.10;;;30.70;2.60;;;;;;5030951;28;34333;-77
2022/08/18 12:35:21;;;;;;;5.72;4.57;;;30.80;1.00;;;;;;5047496;28;34213;-76
2022/08/18 12:37:47;;;;;;;5.28;3.92;;;30.70;2.20;;;;;;5045865;28;34202;-76
2022/08/18 12:40:13;;;;;;;5.07;4.57;;;30.80;2.20;;;;;;5046087;28;35668;-76
2022/08/18 12:42:39;;;;;;;4.45;4.05;;;30.90;1.90;;;;;;5080558;28;34133;-76
2022/08/18 12:45:09;;;;;;;4.13;3.83;;;30.90;1.60;;;;;;5029300;28;35244;-76
2022/08/18 12:47:38;;;;;;;5.38;4.07;;;31.00;1.00;;;;;;5033656;28;35740;-76
2022/08/18 12:50:06;;;;;;;5.88;3.80;;;30.90;1.00;;;;;;5046834;28;36017;-77
2022/08/18 12:52:32;;;;;;;5.82;4.15;;;30.90;1.10;;;;;;5065295;28;34391;-75
2022/08/18 12:54:58;;;;;;;4.80;4.32;;;31.00;1.50;;;;;;5047243;28;34223;-77
2022/08/18 12:57:26;;;;;;;4.80;4.28;;;31.10;1.00;;;;;;5040760;28;34155;-76
2022/08/18 12:59:53;;;;;;;4.63;4.22;;;31.10;1.00;;;;;;5067296;28;36310;-78
2022/08/18 13:02:20;;;;;;;4.45;4.05;;;31.10;1.00;;;;;;5085184;28;34082;-76
2022/08/18 13:04:46;;;;;;;6.95;4.80;;;31.10;1.00;;;;;;5084791;28;34232;-77
2022/08/18 13:07:14;;;;;;;4.78;4.32;;;31.20;1.00;;;;;;5061104;28;34118;-76
2022/08/18 13:09:41;;;;;;;4.28;3.88;;;31.20;1.00;;;;;;5048155;28;34245;-77
2022/08/18 13:12:08;;;;;;;8.60;4.13;;;31.20;1.00;;;;;;5035933;28;34080;-76
2022/08/18 13:14:35;;;;;;;4.90;4.40;;;31.30;1.00;;;;;;5076691;28;34139;-77
2022/08/18 13:17:01;;;;;;;4.88;4.18;;;31.20;1.00;;;;;;5085419;28;34484;-77
2022/08/18 13:19:27;;;;;;;4.72;4.32;;;31.10;1.00;;;;;;5086216;28;34303;-76
2022/08/18 13:21:53;;;;;;;4.95;4.45;;;31.10;1.00;;;;;;5068843;28;34106;-76
2022/08/18 13:24:19;;;;;;;5.20;4.70;;;30.90;1.00;;;;;;5066790;28;34174;-76
2022/08/18 13:26:46;;;;;;;5.22;4.40;;;30.80;1.00;;;;;;5079528;28;34182;-77
2022/08/18 13:29:16;;;;;;;4.72;4.32;;;30.80;1.00;;;;;;5106209;28;34523;-77
2022/08/18 13:31:43;;;;;;;5.43;4.55;;;30.80;1.00;;;;;;5089307;28;34251;-76
2022/08/18 13:34:09;;;;;;;5.00;4.50;;;30.70;1.00;;;;;;5064001;28;34416;-76
2022/08/18 13:39:19;;;;;;;5.15;4.50;;;30.70;1.00;;;;;;5104654;28;34069;-76
2022/08/18 13:41:48;;;;;;;4.90;4.40;;;30.60;1.00;;;;;;5097075;28;35471;-76
2022/08/18 13:44:17;;;;;;;4.80;4.32;;;30.60;1.00;;;;;;5063928;28;34215;-77
2022/08/18 13:46:44;;;;;;;4.55;4.15;;;30.70;1.00;;;;;;5046276;28;34542;-76
2022/08/18 13:49:15;;;;;;;4.60;4.18;;;30.70;1.00;;;;;;5064221;28;35248;-76
2022/08/18 13:51:42;;;;;;;4.65;4.25;;;30.80;1.00;;;;;;5065465;28;34109;-76
2022/08/18 13:54:13;;;;;;;4.88;4.47;;;30.80;1.00;;;;;;5047388;28;34075;-76
2022/08/18 13:56:38;;;;;;;5.03;4.53;;;30.70;1.00;;;;;;5064081;28;34063;-76
2022/08/18 13:59:05;;;;;;;5.28;4.75;;;30.80;1.00;;;;;;5065043;28;35926;-76
2022/08/18 14:01:31;;;;;;;4.80;4.22;;;30.80;1.00;;;;;;5055014;28;34259;-76